createdAt,value
2023-05-05T00:01:33.333Z,101571.72
2023-05-05T00:04:00.558Z,101558.97
2023-05-05T00:06:28.610Z,101562.47
2023-05-05T00:08:56.162Z,101558.16
2023-05-05T00:11:23.292Z,101558.38
2023-05-05T00:13:51.393Z,101562.72
2023-05-05T00:16:18.411Z,101550.78
2023-05-05T00:18:45.617Z,101560.72
2023-05-05T00:21:12.602Z,101565.03
2023-05-05T00:23:39.503Z,101571.44
2023-05-05T00:26:06.580Z,101564.91
2023-05-05T00:28:33.570Z,101555.22
2023-05-05T00:31:00.646Z,101555.81
2023-05-05T00:33:27.712Z,101549.25
2023-05-05T00:35:54.565Z,101560.81
2023-05-05T00:38:21.645Z,101554.63
2023-05-05T00:40:48.727Z,101545.16
2023-05-05T00:43:15.704Z,101551.81
2023-05-05T00:45:47.432Z,101540.94
2023-05-05T00:48:14.547Z,101542.59
2023-05-05T00:50:44.802Z,101542.00
2023-05-05T00:53:13.007Z,101533.78
2023-05-05T00:55:40.421Z,101541.00
2023-05-05T00:58:07.933Z,101533.66
2023-05-05T01:00:35.028Z,101535.16
2023-05-05T01:03:02.204Z,101536.88
2023-05-05T01:05:42.189Z,101545.75
2023-05-05T01:08:49.570Z,101535.09
2023-05-05T01:11:32.374Z,101551.06
2023-05-05T01:14:16.980Z,101541.47
2023-05-05T01:16:57.515Z,101549.16
2023-05-05T01:19:54.394Z,101530.47
2023-05-05T01:22:27.699Z,101536.28
2023-05-05T01:25:09.605Z,101538.38
2023-05-05T01:28:32.257Z,101535.53
2023-05-05T01:31:28.466Z,101530.03
2023-05-05T01:34:01.652Z,101531.75
2023-05-05T01:36:39.551Z,101519.63
2023-05-05T01:39:12.788Z,101524.34
2023-05-05T01:41:49.221Z,101526.00
2023-05-05T01:44:18.886Z,101531.81
2023-05-05T01:46:48.981Z,101533.91
2023-05-05T01:49:16.470Z,101530.47
2023-05-05T01:51:46.102Z,101524.75
2023-05-05T01:54:15.336Z,101529.06
2023-05-05T01:56:43.216Z,101532.97
2023-05-05T01:59:11.236Z,101539.38
2023-05-05T02:01:44.808Z,101539.59
2023-05-05T02:04:14.593Z,101535.50
2023-05-05T02:06:42.884Z,101529.56
2023-05-05T02:09:13.055Z,101531.63
2023-05-05T02:11:41.040Z,101526.34
2023-05-05T02:14:09.386Z,101521.81
2023-05-05T02:16:41.063Z,101529.25
2023-05-05T02:19:08.893Z,101527.25
2023-05-05T02:21:36.380Z,101527.25
2023-05-05T02:24:03.987Z,101530.13
2023-05-05T02:26:35.697Z,101532.22
2023-05-05T02:29:08.458Z,101526.28
2023-05-05T02:31:43.111Z,101526.50
2023-05-05T02:34:11.322Z,101522.84
2023-05-05T02:36:41.394Z,101531.91
2023-05-05T02:39:22.296Z,101531.91
2023-05-05T02:41:52.324Z,101522.31
2023-05-05T02:44:26.145Z,101524.16
2023-05-05T02:46:54.859Z,101520.91
2023-05-05T02:49:23.572Z,101532.66
2023-05-05T02:51:52.762Z,101532.03
2023-05-05T02:54:26.298Z,101519.09
2023-05-05T02:56:54.596Z,101522.00
2023-05-05T02:59:50.848Z,101524.91
2023-05-05T03:02:35.461Z,101524.75
2023-05-05T03:05:11.326Z,101527.47
2023-05-05T03:07:59.036Z,101513.50
2023-05-05T03:10:31.285Z,101528.72
2023-05-05T03:13:03.202Z,101515.19
2023-05-05T03:15:43.182Z,101521.97
2023-05-05T03:18:12.207Z,101534.53
2023-05-05T03:20:43.763Z,101529.38
2023-05-05T03:23:13.456Z,101526.13
2023-05-05T03:25:51.473Z,101520.38
2023-05-05T03:28:28.035Z,101522.47
2023-05-05T03:30:57.487Z,101522.69
2023-05-05T03:33:24.767Z,101532.13
2023-05-05T03:35:51.979Z,101528.84
2023-05-05T03:38:19.320Z,101531.53
2023-05-05T03:40:46.561Z,101537.28
2023-05-05T03:43:17.595Z,101540.19
2023-05-05T03:45:44.672Z,101540.63
2023-05-05T03:48:11.905Z,101528.28
2023-05-05T03:50:40.611Z,101532.81
2023-05-05T03:53:08.428Z,101532.41
2023-05-05T03:55:35.482Z,101535.09
2023-05-05T03:58:02.491Z,101534.28
2023-05-05T04:00:29.570Z,101543.13
2023-05-05T04:02:57.061Z,101533.47
2023-05-05T04:05:25.316Z,101530.41
2023-05-05T04:07:52.511Z,101532.03
2023-05-05T04:10:19.545Z,101518.88
2023-05-05T04:12:46.668Z,101536.13
2023-05-05T04:15:13.655Z,101521.34
2023-05-05T04:17:41.339Z,101530.56
2023-05-05T04:20:09.558Z,101534.88
2023-05-05T04:22:36.975Z,101525.00
2023-05-05T04:25:05.051Z,101522.09
2023-05-05T04:27:32.237Z,101529.47
2023-05-05T04:30:00.293Z,101530.72
2023-05-05T04:32:27.677Z,101526.56
2023-05-05T04:34:54.989Z,101533.53
2023-05-05T04:37:22.766Z,101536.38
2023-05-05T04:39:49.909Z,101542.94
2023-05-05T04:42:17.106Z,101535.06
2023-05-05T04:44:44.198Z,101546.75
2023-05-05T04:47:13.933Z,101548.78
2023-05-05T04:49:41.958Z,101553.47
2023-05-05T04:52:08.965Z,101548.88
2023-05-05T04:54:37.230Z,101548.44
2023-05-05T04:57:04.613Z,101555.38
2023-05-05T04:59:31.627Z,101547.47
2023-05-05T05:01:58.539Z,101563.50
2023-05-05T05:04:27.156Z,101564.69
2023-05-05T05:06:54.896Z,101560.28
2023-05-05T05:09:22.955Z,101569.91
2023-05-05T05:11:50.055Z,101561.41
2023-05-05T05:14:17.098Z,101565.91
2023-05-05T05:16:44.443Z,101569.56
2023-05-05T05:19:11.473Z,101570.13
2023-05-05T05:21:38.474Z,101558.50
2023-05-05T05:24:05.689Z,101563.78
2023-05-05T05:26:32.760Z,101557.50
2023-05-05T05:29:00.048Z,101566.06
2023-05-05T05:31:27.295Z,101565.53
2023-05-05T05:33:56.144Z,101561.94
2023-05-05T05:36:23.592Z,101565.94
2023-05-05T05:38:50.620Z,101569.94
2023-05-05T05:41:18.034Z,101557.28
2023-05-05T05:43:44.910Z,101563.38
2023-05-05T05:46:12.479Z,101570.28
2023-05-05T05:48:40.714Z,101561.53
2023-05-05T05:51:08.341Z,101578.72
2023-05-05T05:53:35.661Z,101568.34
2023-05-05T05:56:02.703Z,101572.19
2023-05-05T05:58:29.953Z,101572.69
2023-05-05T06:00:59.103Z,101571.75
2023-05-05T06:03:26.763Z,101569.44
2023-05-05T06:05:54.039Z,101572.63
2023-05-05T06:08:22.580Z,101561.88
2023-05-05T06:10:53.127Z,101560.03
2023-05-05T06:13:21.442Z,101561.09
2023-05-05T06:15:50.877Z,101560.25
2023-05-05T06:18:18.559Z,101564.34
2023-05-05T06:20:49.155Z,101574.25
2023-05-05T06:23:16.582Z,101577.16
2023-05-05T06:25:48.693Z,101574.44
2023-05-05T06:28:16.204Z,101572.66
2023-05-05T06:30:43.253Z,101576.78
2023-05-05T06:33:10.382Z,101573.72
2023-05-05T06:35:37.322Z,101567.47
2023-05-05T06:38:04.309Z,101571.66
2023-05-05T06:40:31.811Z,101556.16
2023-05-05T06:42:58.676Z,101562.06
2023-05-05T06:45:32.134Z,101563.63
2023-05-05T06:47:59.025Z,101568.38
2023-05-05T06:50:25.961Z,101583.44
2023-05-05T06:52:53.232Z,101566.84
2023-05-05T06:55:20.526Z,101569.25
2023-05-05T06:57:47.761Z,101569.72
2023-05-05T07:00:16.780Z,101563.44
2023-05-05T07:02:44.150Z,101563.56
2023-05-05T07:05:11.109Z,101565.41
2023-05-05T07:07:38.892Z,101567.78
2023-05-05T07:10:07.598Z,101574.94
2023-05-05T07:12:34.754Z,101565.41
2023-05-05T07:15:07.019Z,101572.34
2023-05-05T07:17:42.834Z,101568.13
2023-05-05T07:20:10.943Z,101567.66
2023-05-05T07:22:38.124Z,101570.47
2023-05-05T07:25:06.195Z,101572.41
2023-05-05T07:27:34.017Z,101576.56
2023-05-05T07:30:01.285Z,101564.25
2023-05-05T07:32:28.332Z,101565.97
2023-05-05T07:34:55.345Z,101569.28
2023-05-05T07:37:22.422Z,101578.59
2023-05-05T07:39:49.449Z,101579.00
2023-05-05T07:42:16.663Z,101570.97
2023-05-05T07:44:44.644Z,101578.66
2023-05-05T07:47:11.818Z,101584.13
2023-05-05T07:49:38.785Z,101581.03
2023-05-05T07:52:05.645Z,101581.66
2023-05-05T07:54:32.836Z,101579.31
2023-05-05T07:56:59.890Z,101585.41
2023-05-05T07:59:26.842Z,101574.97
2023-05-05T08:01:55.043Z,101582.63
2023-05-05T08:04:22.238Z,101581.59
2023-05-05T08:06:49.217Z,101568.88
2023-05-05T08:09:16.376Z,101571.63
2023-05-05T08:11:43.404Z,101575.94
2023-05-05T08:14:10.516Z,101565.78
2023-05-05T08:16:37.450Z,101568.91
2023-05-05T08:19:07.933Z,101575.00
2023-05-05T08:21:42.203Z,101553.84
2023-05-05T08:24:09.146Z,101563.13
2023-05-05T08:26:36.319Z,101557.09
2023-05-05T08:29:03.263Z,101551.53
2023-05-05T08:31:34.566Z,101538.72
2023-05-05T08:34:02.487Z,101528.44
2023-05-05T08:36:29.680Z,101539.59
2023-05-05T08:38:57.247Z,101529.63
2023-05-05T08:41:25.264Z,101538.56
2023-05-05T08:43:52.838Z,101542.38
2023-05-05T08:46:20.811Z,101530.13
2023-05-05T08:48:49.243Z,101538.00
2023-05-05T08:51:20.258Z,101534.97
2023-05-05T08:54:04.029Z,101525.53
2023-05-05T08:56:39.276Z,101528.69
2023-05-05T08:59:06.895Z,101527.22
2023-05-05T09:01:36.470Z,101533.06
2023-05-05T09:04:08.327Z,101532.81
2023-05-05T09:06:37.161Z,101521.94
2023-05-05T09:09:04.257Z,101532.13
2023-05-05T09:11:34.671Z,101532.84
2023-05-05T09:14:01.933Z,101537.34
2023-05-05T09:16:28.813Z,101525.84
2023-05-05T09:19:05.137Z,101521.47
2023-05-05T09:21:32.431Z,101533.25
2023-05-05T09:24:09.557Z,101521.19
2023-05-05T09:26:39.527Z,101537.44
2023-05-05T09:29:07.255Z,101519.81
2023-05-05T09:31:36.514Z,101522.66
2023-05-05T09:34:16.717Z,101536.13
2023-05-05T09:36:49.627Z,101522.63
2023-05-05T09:39:20.904Z,101525.00
2023-05-05T09:41:48.939Z,101514.25
2023-05-05T09:44:17.497Z,101509.06
2023-05-05T09:46:52.845Z,101506.63
2023-05-05T09:49:27.258Z,101499.22
2023-05-05T09:51:55.757Z,101501.44
2023-05-05T09:54:24.644Z,101496.63
2023-05-05T09:56:52.608Z,101504.34
2023-05-05T09:59:20.975Z,101508.94
2023-05-05T10:01:50.690Z,101506.16
2023-05-05T10:04:29.996Z,101503.19
2023-05-05T10:06:58.483Z,101509.91
2023-05-05T10:09:27.318Z,101501.88
2023-05-05T10:11:58.636Z,101498.72
2023-05-05T10:14:27.452Z,101502.75
2023-05-05T10:16:55.528Z,101489.78
2023-05-05T10:19:24.531Z,101502.13
2023-05-05T10:21:54.195Z,101498.59
2023-05-05T10:24:43.453Z,101491.63
2023-05-05T10:27:22.442Z,101491.84
2023-05-05T10:29:57.999Z,101481.50
2023-05-05T10:33:03.411Z,101479.38
2023-05-05T10:35:34.253Z,101482.03
2023-05-05T10:38:02.325Z,101479.47
2023-05-05T10:40:30.047Z,101479.88
2023-05-05T10:42:58.603Z,101478.25
2023-05-05T10:45:25.760Z,101471.69
2023-05-05T10:47:57.118Z,101479.91
2023-05-05T10:50:36.770Z,101459.03
2023-05-05T10:53:24.203Z,101458.47
2023-05-05T10:56:04.436Z,101457.91
2023-05-05T10:58:51.649Z,101466.00
2023-05-05T11:01:34.107Z,101461.28
2023-05-05T11:04:24.792Z,101460.50
2023-05-05T11:07:14.680Z,101459.25
2023-05-05T11:09:57.005Z,101449.84
2023-05-05T11:12:26.769Z,101440.84
2023-05-05T11:15:28.232Z,101436.53
2023-05-05T11:17:56.741Z,101427.16
2023-05-05T11:20:41.695Z,101427.69
2023-05-05T11:23:08.835Z,101426.91
2023-05-05T11:25:41.998Z,101422.38
2023-05-05T11:28:19.031Z,101419.13
2023-05-05T11:31:04.150Z,101421.66
2023-05-05T11:33:39.774Z,101423.09
2023-05-05T11:36:11.838Z,101419.03
2023-05-05T11:38:38.691Z,101425.84
2023-05-05T11:41:33.488Z,101423.16
2023-05-05T11:44:21.202Z,101416.84
2023-05-05T11:46:51.039Z,101410.53
2023-05-05T11:49:37.629Z,101412.38
2023-05-05T11:52:10.734Z,101413.75
2023-05-05T11:54:41.644Z,101399.44
2023-05-05T11:57:09.101Z,101409.31
2023-05-05T11:59:49.819Z,101420.81
2023-05-05T12:02:18.709Z,101407.19
2023-05-05T12:04:47.059Z,101404.22
2023-05-05T12:07:19.990Z,101405.03
2023-05-05T12:09:49.291Z,101391.09
2023-05-05T12:12:17.228Z,101390.72
2023-05-05T12:14:52.803Z,101396.69
2023-05-05T12:17:20.883Z,101392.69
2023-05-05T12:19:54.250Z,101379.59
2023-05-05T12:22:27.624Z,101380.53
2023-05-05T12:25:01.595Z,101380.22
2023-05-05T12:27:29.326Z,101381.44
2023-05-05T12:29:57.903Z,101384.66
2023-05-05T12:32:28.355Z,101374.66
2023-05-05T12:34:57.514Z,101372.25
2023-05-05T12:37:26.737Z,101366.63
2023-05-05T12:39:55.096Z,101361.41
2023-05-05T12:42:22.687Z,101362.16
2023-05-05T12:44:49.890Z,101364.16
2023-05-05T12:47:33.316Z,101361.78
2023-05-05T12:50:02.896Z,101369.38
2023-05-05T12:52:45.363Z,101373.25
2023-05-05T12:55:13.225Z,101362.00
2023-05-05T12:58:02.275Z,101355.81
2023-05-05T13:00:29.334Z,101354.22
2023-05-05T13:02:56.951Z,101351.38
2023-05-05T13:05:37.677Z,101346.44
2023-05-05T13:08:05.035Z,101350.38
2023-05-05T13:10:32.034Z,101348.00
2023-05-05T13:12:59.572Z,101343.16
2023-05-05T13:15:27.536Z,101337.97
2023-05-05T13:18:01.544Z,101328.63
2023-05-05T13:20:28.837Z,101332.56
2023-05-05T13:22:55.926Z,101334.47
2023-05-05T13:25:22.786Z,101322.03
2023-05-05T13:27:49.740Z,101318.00
2023-05-05T13:30:16.562Z,101315.16
2023-05-05T13:32:43.708Z,101305.91
2023-05-05T13:35:11.709Z,101310.63
2023-05-05T13:37:42.408Z,101302.56
2023-05-05T13:40:10.581Z,101305.78
2023-05-05T13:42:37.488Z,101305.97
2023-05-05T13:45:05.512Z,101313.78
2023-05-05T13:47:32.729Z,101303.91
2023-05-05T13:49:59.804Z,101294.84
2023-05-05T13:52:27.321Z,101293.31
2023-05-05T13:54:54.480Z,101292.13
2023-05-05T13:57:21.467Z,101286.88
2023-05-05T13:59:48.568Z,101287.22
2023-05-05T14:02:16.129Z,101275.72
2023-05-05T14:04:43.187Z,101279.75
2023-05-05T14:07:10.307Z,101280.28
2023-05-05T14:09:37.224Z,101275.03
2023-05-05T14:12:04.970Z,101280.34
2023-05-05T14:14:31.872Z,101272.91
2023-05-05T14:16:58.899Z,101264.22
2023-05-05T14:19:25.992Z,101262.72
2023-05-05T14:21:53.034Z,101258.31
2023-05-05T14:24:20.154Z,101260.09
2023-05-05T14:26:47.147Z,101258.97
2023-05-05T14:29:14.275Z,101272.53
2023-05-05T14:31:41.421Z,101267.34
2023-05-05T14:34:08.459Z,101268.53
2023-05-05T14:36:35.432Z,101256.88
2023-05-05T14:39:02.284Z,101256.06
2023-05-05T14:41:29.344Z,101254.44
2023-05-05T14:43:57.098Z,101259.88
2023-05-05T14:46:24.040Z,101258.88
2023-05-05T14:48:51.102Z,101260.28
2023-05-05T14:51:18.274Z,101251.22
2023-05-05T14:53:45.297Z,101242.56
2023-05-05T14:56:12.205Z,101249.41
2023-05-05T14:58:39.057Z,101240.91
2023-05-05T15:01:06.142Z,101246.41
2023-05-05T15:03:33.287Z,101249.38
2023-05-05T15:06:00.479Z,101263.78
2023-05-05T15:08:27.561Z,101248.81
2023-05-05T15:10:54.587Z,101256.94
2023-05-05T15:13:21.710Z,101245.06
2023-05-05T15:15:49.001Z,101237.56
2023-05-05T15:18:16.052Z,101244.88
2023-05-05T15:20:43.132Z,101239.81
2023-05-05T15:23:10.160Z,101247.63
2023-05-05T15:25:37.027Z,101241.25
2023-05-05T15:28:04.056Z,101249.44
2023-05-05T15:30:31.160Z,101250.41
2023-05-05T15:32:58.273Z,101240.91
2023-05-05T15:35:25.510Z,101247.00
2023-05-05T15:37:54.381Z,101247.63
2023-05-05T15:40:21.557Z,101258.91
2023-05-05T15:42:49.900Z,101256.22
2023-05-05T15:45:17.576Z,101246.00
2023-05-05T15:47:44.787Z,101249.06
2023-05-05T15:50:12.099Z,101240.31
2023-05-05T15:52:39.051Z,101245.19
2023-05-05T15:55:07.196Z,101243.97
2023-05-05T15:57:34.656Z,101233.16
2023-05-05T16:00:02.055Z,101241.53
2023-05-05T16:02:34.707Z,101242.03
2023-05-05T16:05:02.268Z,101229.25
2023-05-05T16:07:29.348Z,101251.84
2023-05-05T16:09:57.212Z,101244.75
2023-05-05T16:12:24.073Z,101247.91
2023-05-05T16:14:51.084Z,101245.09
2023-05-05T16:17:18.499Z,101241.09
2023-05-05T16:19:46.926Z,101248.53
2023-05-05T16:22:14.567Z,101248.81
2023-05-05T16:24:44.196Z,101242.66
2023-05-05T16:27:12.759Z,101246.66
2023-05-05T16:29:40.045Z,101249.56
2023-05-05T16:32:06.989Z,101247.22
2023-05-05T16:34:34.102Z,101255.38
2023-05-05T16:37:01.188Z,101249.09
2023-05-05T16:39:28.376Z,101252.94
2023-05-05T16:41:55.579Z,101238.78
2023-05-05T16:44:22.692Z,101252.09
2023-05-05T16:46:49.827Z,101252.25
2023-05-05T16:49:17.181Z,101250.13
2023-05-05T16:51:44.472Z,101247.19
2023-05-05T16:54:11.408Z,101247.81
2023-05-05T16:56:38.614Z,101241.56
2023-05-05T16:59:06.234Z,101249.72
2023-05-05T17:01:34.744Z,101242.66
2023-05-05T17:04:02.451Z,101248.94
2023-05-05T17:06:33.158Z,101244.84
2023-05-05T17:09:00.566Z,101245.13
2023-05-05T17:11:27.863Z,101237.19
2023-05-05T17:13:54.941Z,101237.16
2023-05-05T17:16:22.149Z,101245.22
2023-05-05T17:18:49.318Z,101242.94
2023-05-05T17:21:16.288Z,101250.13
2023-05-05T17:23:43.296Z,101235.63
2023-05-05T17:26:10.268Z,101236.88
2023-05-05T17:28:37.412Z,101228.06
2023-05-05T17:31:04.335Z,101234.13
2023-05-05T17:33:31.441Z,101238.34
2023-05-05T17:35:58.412Z,101235.69
2023-05-05T17:38:25.458Z,101237.41
2023-05-05T17:40:52.459Z,101228.25
2023-05-05T17:43:19.581Z,101227.81
2023-05-05T17:45:46.846Z,101241.50
2023-05-05T17:48:14.019Z,101236.47
2023-05-05T17:50:43.128Z,101247.16
2023-05-05T17:53:11.126Z,101250.47
2023-05-05T17:55:38.504Z,101247.03
2023-05-05T17:58:05.569Z,101242.22
2023-05-05T18:00:32.496Z,101254.00
2023-05-05T18:03:01.222Z,101260.81
2023-05-05T18:05:28.471Z,101252.47
2023-05-05T18:07:55.676Z,101240.06
2023-05-05T18:10:23.201Z,101253.69
2023-05-05T18:12:50.306Z,101260.78
2023-05-05T18:15:17.292Z,101257.28
2023-05-05T18:17:44.452Z,101263.31
2023-05-05T18:20:11.796Z,101255.22
2023-05-05T18:22:38.896Z,101268.81
2023-05-05T18:25:08.026Z,101266.41
2023-05-05T18:27:36.190Z,101269.69
2023-05-05T18:30:04.757Z,101264.28
2023-05-05T18:32:32.261Z,101264.31
2023-05-05T18:34:59.653Z,101272.75
2023-05-05T18:37:27.892Z,101273.59
2023-05-05T18:39:55.015Z,101261.97
2023-05-05T18:42:22.398Z,101265.22
2023-05-05T18:44:49.296Z,101263.88
2023-05-05T18:47:16.386Z,101266.06
2023-05-05T18:49:45.307Z,101275.28
2023-05-05T18:52:12.285Z,101276.91
2023-05-05T18:54:39.143Z,101282.34
2023-05-05T18:57:06.065Z,101280.72
2023-05-05T18:59:33.166Z,101282.09
2023-05-05T19:02:00.447Z,101280.44
2023-05-05T19:04:31.221Z,101286.13
2023-05-05T19:07:00.180Z,101291.81
2023-05-05T19:09:28.034Z,101305.91
2023-05-05T19:11:54.914Z,101309.69
2023-05-05T19:14:22.833Z,101309.97
2023-05-05T19:16:50.172Z,101304.28
2023-05-05T19:19:17.110Z,101306.72
2023-05-05T19:21:44.220Z,101323.50
2023-05-05T19:24:11.623Z,101311.56
2023-05-05T19:26:38.743Z,101318.59
2023-05-05T19:29:05.828Z,101311.00
2023-05-05T19:31:32.761Z,101300.16
2023-05-05T19:34:02.461Z,101307.47
2023-05-05T19:36:31.903Z,101312.88
2023-05-05T19:39:03.910Z,101304.47
2023-05-05T19:41:31.252Z,101323.13
2023-05-05T19:43:58.427Z,101299.59
2023-05-05T19:46:28.161Z,101302.56
2023-05-05T19:48:55.138Z,101312.25
2023-05-05T19:51:22.310Z,101317.38
2023-05-05T19:53:50.362Z,101319.53
2023-05-05T19:56:17.464Z,101311.69
2023-05-05T19:59:01.727Z,101320.59
2023-05-05T20:01:29.424Z,101325.97
2023-05-05T20:03:57.120Z,101304.84
2023-05-05T20:06:24.395Z,101310.28
2023-05-05T20:08:52.324Z,101316.22
2023-05-05T20:11:21.258Z,101321.84
2023-05-05T20:13:50.563Z,101322.38
2023-05-05T20:16:18.468Z,101319.34
2023-05-05T20:18:45.417Z,101319.88
2023-05-05T20:21:12.508Z,101313.91
2023-05-05T20:23:39.521Z,101312.00
2023-05-05T20:26:06.729Z,101317.66
2023-05-05T20:28:33.916Z,101314.13
2023-05-05T20:31:01.286Z,101303.03
2023-05-05T20:33:29.135Z,101301.38
2023-05-05T20:35:56.067Z,101309.47
2023-05-05T20:38:23.062Z,101313.19
2023-05-05T20:40:50.848Z,101309.13
2023-05-05T20:43:18.203Z,101303.94
2023-05-05T20:45:45.311Z,101318.78
2023-05-05T20:48:12.212Z,101317.41
2023-05-05T20:50:42.622Z,101314.16
2023-05-05T20:53:11.246Z,101309.25
2023-05-05T20:55:38.629Z,101298.72
2023-05-05T20:58:07.384Z,101316.25
2023-05-05T21:00:34.673Z,101315.69
2023-05-05T21:03:02.911Z,101312.69
2023-05-05T21:05:31.455Z,101308.63
2023-05-05T21:08:00.887Z,101311.84
2023-05-05T21:10:29.158Z,101307.47
2023-05-05T21:12:56.274Z,101321.50
2023-05-05T21:15:23.390Z,101321.50
2023-05-05T21:17:50.963Z,101306.88
2023-05-05T21:20:18.651Z,101300.09
2023-05-05T21:22:46.065Z,101305.25
2023-05-05T21:25:19.571Z,101309.25
2023-05-05T21:27:48.484Z,101301.94
2023-05-05T21:30:16.965Z,101314.34
2023-05-05T21:32:44.659Z,101319.19
2023-05-05T21:35:11.966Z,101302.69
2023-05-05T21:37:39.458Z,101301.34
2023-05-05T21:40:13.889Z,101296.44
2023-05-05T21:42:42.213Z,101293.19
2023-05-05T21:45:11.657Z,101291.25
2023-05-05T21:47:38.874Z,101293.41
2023-05-05T21:50:06.777Z,101284.75
2023-05-05T21:52:33.873Z,101285.00
2023-05-05T21:55:00.852Z,101286.09
2023-05-05T21:57:27.816Z,101291.66
2023-05-05T21:59:54.977Z,101291.91
2023-05-05T22:02:22.404Z,101302.16
2023-05-05T22:04:51.601Z,101300.50
2023-05-05T22:07:18.728Z,101305.59
2023-05-05T22:09:46.155Z,101306.69
2023-05-05T22:12:13.277Z,101292.63
2023-05-05T22:14:40.523Z,101294.78
2023-05-05T22:17:07.352Z,101294.22
2023-05-05T22:19:34.657Z,101288.25
2023-05-05T22:22:02.647Z,101309.84
2023-05-05T22:24:30.318Z,101303.88
2023-05-05T22:26:57.422Z,101317.13
2023-05-05T22:29:25.197Z,101324.66
2023-05-05T22:31:52.538Z,101325.16
2023-05-05T22:34:21.562Z,101322.44
2023-05-05T22:36:49.273Z,101320.78
2023-05-05T22:39:17.153Z,101336.94
2023-05-05T22:41:44.907Z,101328.81
2023-05-05T22:44:12.256Z,101324.94
2023-05-05T22:46:39.264Z,101322.25
2023-05-05T22:49:06.274Z,101315.97
2023-05-05T22:51:33.990Z,101320.00
2023-05-05T22:54:01.000Z,101311.59
2023-05-05T22:56:28.031Z,101325.88
2023-05-05T22:58:55.687Z,101330.41
2023-05-05T23:01:23.093Z,101322.22
2023-05-05T23:03:50.068Z,101306.56
2023-05-05T23:06:16.999Z,101314.81
2023-05-05T23:08:44.593Z,101308.38
2023-05-05T23:11:11.463Z,101311.00
2023-05-05T23:13:38.649Z,101312.53
2023-05-05T23:16:06.304Z,101306.03
2023-05-05T23:18:33.334Z,101297.56
2023-05-05T23:21:00.429Z,101290.47
2023-05-05T23:23:27.593Z,101291.53
2023-05-05T23:25:54.647Z,101295.81
2023-05-05T23:28:21.673Z,101286.53
2023-05-05T23:30:48.719Z,101288.09
2023-05-05T23:33:16.075Z,101285.56
2023-05-05T23:35:45.423Z,101279.88
2023-05-05T23:38:12.508Z,101288.38
2023-05-05T23:40:39.404Z,101288.03
2023-05-05T23:43:06.233Z,101290.66
2023-05-05T23:45:33.313Z,101288.63
2023-05-05T23:48:00.342Z,101289.38
2023-05-05T23:50:27.771Z,101280.66
2023-05-05T23:52:54.740Z,101268.63
2023-05-05T23:55:21.782Z,101272.78
2023-05-05T23:57:48.641Z,101274.81
